METAR Data
IDs: Format: Raw Decoded Include TAF

Data at: 0622 UTC 11 Dec 2018

PAYA 110611Z AUTO 12020G31KT 4SM RA BR BKN009 BKN015 OVC026 07/06 A2858 RMK AO2 PK WND 14033/0554 P0003 T00670056 TSNO $
PAYA 110553Z AUTO 13023G36KT 6SM -RA BR BKN015 OVC029 07/05 A2859 RMK AO2 PK WND 14048/0515 SLP683 P0000 60050 T00670050 10072 20044 56027 TSNO $
PAYA 110535Z AUTO 13021G42KT 7SM -RA BKN015 OVC027 07/05 A2860 RMK AO2 PK WND 14048/0515 P0000 T00670050 TSNO $
PAYA 110524Z AUTO 13020G48KT 7SM -RA BKN014 OVC024 07/04 A2860 RMK AO2 PK WND 14048/0515 P0000 T00670044 TSNO $
PAYA 110453Z AUTO 13020G38KT 6SM -RA BR OVC016 07/04 A2862 RMK AO2 PK WND 13041/0443 SLP691 P0000 T00670044 TSNO $
PAYA 110353Z AUTO 10017G24KT 3SM RA BR BKN022 OVC027 04/03 A2864 RMK AO2 PK WND 09027/0320 SLP700 P0012 T00440033 TSNO $
PAYA 110253Z AUTO 09012KT 4SM +RA BR OVC019 04/03 A2868 RMK AO2 PK WND 09026/0233 SLP711 P0016 60038 T00440033 56069 TSNO $
PAYA 110153Z AUTO 08017G23KT 6SM RA BR OVC025 06/04 A2873 RMK AO2 PRESFR SLP728 P0010 T00560039 TSNO $
PAYA 110053Z AUTO 10012G22KT 8SM -RA SCT018 OVC023 05/04 A2881 RMK AO2 SLP755 P0012 T00500039 TSNO $
PAYA 102353Z AUTO 12020G29KT 3SM RA BR OVC017 06/04 A2888 RMK AO2 PK WND 13034/2319 RAB02 SLP780 P0010 60093 T00560039 10072 20011 TSNO $
PAYA 102337Z AUTO 12017G31KT 4SM RA BR BKN015 OVC020 06/04 A2889 RMK AO2 PK WND 13034/2319 RAB02 PRESFR P0007 T00560039 TSNO $
PAYA 102255Z AUTO 12020G37KT 3SM RA BR OVC016 06/03 A2894 RMK AO2 PK WND 11029/2255 PRESFR P0000 T00560033 TSNO
PAYA 102253Z AUTO 12019G37KT 2 1/2SM RA BR OVC014 06/04 A2895 RMK AO2 PK WND 12037/2250 PRESFR SLP802 P0015 T00560039 TSNO
PAYA 102220Z AUTO 12019G34KT 2 1/2SM RA BR BKN013 BKN019 OVC024 07/05 A2898 RMK AO2 PK WND 13034/2218 PRESFR P0003 T00720050 TSNO
PAYA 102204Z AUTO 12010G27KT 080V150 5SM RA BR FEW009 BKN016 OVC021 06/05 A2900 RMK AO2 PK WND 14027/2202 P0002 T00610050 TSNO
PAYA 102153Z AUTO 10011G23KT 4SM RA BR OVC015 06/04 A2901 RMK AO2 SLP823 P0021 T00560044 TSNO
PAYA 102150Z AUTO 10010G23KT 3SM RA BR OVC015 06/04 A2901 RMK AO2 P0020 TSNO
PAYA 102131Z AUTO 09010G16KT 3SM +RA BR OVC014 03/02 A2903 RMK AO2 P0012 T00330022 TSNO
PAYA 102053Z AUTO 07014KT 4SM RA BR OVC020 02/01 A2907 RMK AO2 RAE1957B27SNB1957E27 PRESFR SLP844 P0016 60047 T00170011 58053 TSNO
PAYA 102042Z AUTO 07013KT 4SM RA BR OVC019 02/01 A2909 RMK AO2 RAE1957B27SNB1957E27 PRESFR P0013 T00170006 TSNO
PAYA 102026Z AUTO 07011KT 2 1/2SM -SN BR OVC017 01/01 A2911 RMK AO2 RAE1957SNB1957 P0009 T00110006 TSNO
PAYA 102017Z AUTO 07012KT 1 1/2SM -SN BR OVC015 01/01 A2911 RMK AO2 RAE1957SNB1957 P0007 T00110006 TSNO
PAYA 102011Z AUTO 07011KT 1SM -SN BR VV014 01/01 A2912 RMK AO2 RAE1957SNB1957 PRESFR P0004 T00110006 TSNO RVRNO
PAYA 102002Z AUTO 07011KT 1 3/4SM -SN BR FEW009 OVC013 02/01 A2913 RMK AO2 VIS 1 1/4V5 RAE1957SNB1957 PRESFR P0002 T00170006 TSNO
PAYA 101953Z AUTO 09014G23KT 5SM RA BR FEW009 OVC013 02/01 A2915 RMK AO2 SLP870 P0018 T00220011 TSNO
PAYA 101917Z AUTO 09013KT 5SM RA BR BKN013 OVC017 04/03 A2917 RMK AO2 P0008 T00390028 TSNO
PAYA 101853Z AUTO 09011KT 6SM RA BR OVC015 04/03 A2919 RMK AO2 SLP884 P0013 T00390028 TSNO
PAYA 101805Z AUTO 10013G19KT 6SM RA BR FEW013 BKN020 OVC026 04/03 A2922 RMK AO2 P0002 T00390028 TSNO
PAYA 101753Z AUTO 10011KT 5SM RA BR FEW013 SCT017 OVC035 03/02 A2922 RMK AO2 SLP897 P0005 60036 T00330022 10039 20011 58018 TSNO
PAYA 101717Z AUTO 09013KT 10SM -RA FEW018 SCT025 OVC038 04/03 A2923 RMK AO2 P0003 T00390028 TSNO
PAYA 101653Z AUTO 07012KT 3SM RA BR SCT014 BKN020 OVC025 03/03 A2924 RMK AO2 RAB26 SLP903 P0005 T00330028 TSNO
PAYA 101646Z AUTO 09008KT 5SM RA BR BKN014 OVC026 04/03 A2925 RMK AO2 RAB26 P0000 T00390028 TSNO
PAYA 101629Z AUTO 08013KT 10SM -RA SCT012 BKN020 OVC044 04/03 A2925 RMK AO2 RAB26 P0000 T00390028 TSNO
PAYA 101553Z AUTO 08007KT 10SM SCT008 BKN036 OVC070 03/02 A2927 RMK AO2 RAE28B40E50 SLP910 P0010 T00330022 TSNO $
PAYA 101543Z AUTO 07007KT 10SM -RA SCT010 BKN030 OVC060 03/02 A2927 RMK AO2 RAE28B40 P0010 T00330022 TSNO $
PAYA 101538Z AUTO 06007KT 10SM BKN009 BKN028 OVC055 03/02 A2927 RMK AO2 RAE28 P0010 T00330022 TSNO $
PAYA 101527Z AUTO 04007KT 10SM -RA BKN011 BKN014 OVC020 03/02 A2927 RMK AO2 P0010 T00330017 TSNO $
PAYA 101453Z AUTO 11008KT 5SM RA BR SCT022 BKN027 OVC050 03/02 A2928 RMK AO2 RAB49 SLP915 P0000 60016 T00330022 55012 TSNO $
PAYA 101438Z AUTO 10011KT 10SM FEW017 BKN034 OVC060 03/02 A2927 RMK AO2 T00330017 TSNO $
PAYA 101353Z AUTO 12007G16KT 10SM BKN017 BKN025 OVC032 03/02 A2927 RMK AO2 PK WND 10031/1305 RAB1258E13SNE1258 SLP912 P0002 T00280017 TSNO $
PAYA 101332Z AUTO 11012G23KT 10SM SCT011 OVC018 02/01 A2926 RMK AO2 PK WND 10031/1305 RAB1258E13SNE1258 P0002 T00220011 TSNO $
PAYA 101306Z AUTO 10021G31KT 6SM -RA BR OVC011 02/01 A2924 RMK AO2 PK WND 10031/1305 RAB1258SNE1258 PRESFR P0001 T00220006 TSNO $
PAYA 101253Z AUTO 09014G20KT 2SM -SN BR OVC011 01/01 A2926 RMK AO2 SLP908 P0014 T00110006 TSNO $
PAYA 101153Z AUTO 07009KT 1 1/4SM -SN BR OVC009 01/01 A2931 RMK AO2 RAE17SNB17 SLP926 P0009 60013 70090 T00110006 10028 20011 58027 TSNO $
PAYA 101146Z AUTO 07010KT 1 1/4SM -SN BR OVC010 01/01 A2932 RMK AO2 RAE17SNB17 P0008 T00110006 TSNO $
PAYA 101138Z AUTO 07011KT 1 1/2SM -SN BR OVC011 01/01 A2932 RMK AO2 RAE17SNB17 P0007 T00110006 TSNO $
PAYA 101131Z AUTO 08013KT 2SM -SN BR OVC011 02/01 A2933 RMK AO2 RAE17SNB17 P0006 T00170006 TSNO $
PAYA 101107Z AUTO 10012G20KT 10SM -RA OVC014 03/01 A2934 RMK AO2 P0002 T00280011 TSNO $
PAYA 101053Z AUTO 09015G21KT 10SM -RA SCT012 OVC020 03/01 A2935 RMK AO2 SLP938 P0001 T00280011 TSNO $
PAYA 101026Z AUTO 08013KT 10SM -RA FEW014 FEW020 OVC028 03/01 A2936 RMK AO2 P0000 T00280011 TSNO $
PAYA 101019Z AUTO 08010KT 10SM -RA FEW018 OVC030 03/01 A2937 RMK AO2 P0000 T00280011 TSNO $
PAYA 100953Z AUTO 08010KT 9SM -RA OVC026 02/01 A2938 RMK AO2 RAB18 SLP948 P0003 T00220011 TSNO $
PAYA 100945Z AUTO 09011KT 6SM -RA BR BKN022 OVC035 03/01 A2938 RMK AO2 RAB18 P0001 T00280011 TSNO $
PAYA 100853Z AUTO 09010KT 10SM FEW041 SCT050 OVC070 03/01 A2939 RMK AO2 RAB18E29 SLP953 P0000 60000 T00280011 400720022 50005 TSNO $
PAYA 100753Z AUTO 10006KT 10SM SCT065 BKN090 OVC110 02/01 A2940 RMK AO2 SLP957 T00220011 TSNO $
PAYA 100653Z AUTO 09006KT 10SM SCT041 BKN050 BKN060 02/01 A2940 RMK AO2 SLP954 T00220011 TSNO $
PAYA 100553Z AUTO 00000KT 10SM BKN050 03/01 A2938 RMK AO2 RAE09 SLP948 P0000 60012 T00280011 10050 20028 53017 TSNO $
PAYA 100513Z AUTO 24004KT 10SM FEW025 BKN040 03/02 A2936 RMK AO2 RAE09 P0000 T00330022 TSNO $
PAYA 100453Z AUTO 22013KT 10SM -RA FEW014 OVC020 03/02 A2936 RMK AO2 SLP943 P0009 T00330022 TSNO $
PAYA 100436Z AUTO 22012G19KT 5SM -RA BR BKN018 BKN023 OVC029 03/02 A2935 RMK AO2 P0008 T00330017 TSNO $
PAYA 100423Z AUTO 25011G24KT 2 1/2SM +RA BR SCT018 BKN025 OVC029 03/02 A2935 RMK AO2 P0004 T00280017 TSNO $
PAYA 100353Z AUTO 28003KT 9SM -RA FEW027 OVC035 03/02 A2933 RMK AO2 RAE01B34 SLP932 P0000 T00330022 TSNO $
PAYA 100350Z AUTO 25003KT 10SM SCT028 OVC037 03/02 A2933 RMK AO2 RAE01B34E49 P0000 TSNO $
PAYA 100339Z AUTO 21004KT 7SM -RA FEW021 BKN026 OVC038 04/02 A2932 RMK AO2 RAE01B34 P0000 T00390022 TSNO $
PAYA 100253Z AUTO 00000KT 10SM -RA FEW024 BKN030 OVC047 03/02 A2930 RMK AO2 RAB47 SLP923 P0000 60003 T00330022 52024 TSNO $
PAYA 100224Z AUTO 24005KT 10SM FEW009 SCT018 BKN025 04/03 A2929 RMK AO2 T00390028 TSNO $
PAYA 100153Z AUTO 08004KT 10SM FEW028 FEW038 03/03 A2928 RMK AO2 RAB08E42 SLP914 P0001 T00330028 TSNO $
PAYA 100144Z AUTO 09003KT 10SM FEW028 SCT038 04/03 A2927 RMK AO2 RAB08E42 P0001 T00390028 TSNO $
PAYA 100132Z AUTO 11003KT 10SM -RA BKN028 OVC036 04/03 A2927 RMK AO2 RAB08 P0001 T00390033 TSNO $
PAYA 100125Z AUTO 11004KT 10SM -RA FEW025 BKN030 OVC048 04/03 A2927 RMK AO2 RAB08 P0001 T00390033 TSNO $
PAYA 100053Z AUTO 00000KT 10SM OVC021 04/04 A2926 RMK AO2 RAE2359B13E51 SLP908 P0002 T00440039 TSNO $
PAYA 092353Z AUTO 31004KT 10SM -RA SCT018 BKN023 OVC036 05/04 A2923 RMK AO2 RAE23B35 SLP899 P0000 60029 T00500039 10056 20044 53010 TSNO $
PAYA 092329Z AUTO 29010KT 10SM SCT018 BKN022 OVC042 05/04 A2922 RMK AO2 RAE23 P0000 T00500039 TSNO $
PAYA 092253Z AUTO 31008KT 10SM -RA FEW017 BKN030 OVC046 06/04 A2921 RMK AO2 SLP893 P0003 T00560039 TSNO $
PAYA 092248Z AUTO 31006KT 10SM -RA FEW016 BKN030 OVC043 06/04 A2921 RMK AO2 P0003 TSNO $
PAYA 092153Z AUTO 29004KT 6SM -RA BR SCT016 OVC027 05/04 A2920 RMK AO2 SLP888 P0007 T00500039 TSNO $
PAYA 092144Z AUTO 35003KT 8SM -RA FEW008 SCT019 OVC025 05/04 A2920 RMK AO2 P0006 T00500044 TSNO $
PAYA 092115Z AUTO VRB03KT 5SM -RA BR FEW006 OVC012 04/04 A2920 RMK AO2 P0003 T00440039 TSNO $
PAYA 092106Z AUTO 08003KT 5SM RA BR FEW006 OVC015 04/04 A2920 RMK AO2 P0001 T00440039 TSNO $
PAYA 092053Z AUTO 00000KT 7SM -RA BKN015 OVC022 04/04 A2920 RMK AO2 SLP887 P0004 60019 T00440039 57002 TSNO $
PAYA 091953Z AUTO 09005KT 10SM -RA FEW020 OVC025 04/04 A2920 RMK AO2 SLP887 P0008 T00440039 TSNO $
PAYA 091853Z AUTO 09006KT 10SM -RA FEW022 OVC027 04/04 A2920 RMK AO2 SLP889 P0007 T00440039 TSNO $